Terminal Aerodrome Forecast
Issued by NWS Upton, NY

Home | Current Version | Previous Version | Text Only | Print | Product List | Glossary On
Versions: 1 2 3 4 5 6 7 8 9 10 11 12 13 14 15 16 17 18 19 20 21 22 23 24 25 26 27 28 29 30
000
FTUS41 KOKX 071451 AAB
TAFJFK
TAF AMD
KJFK 071451Z 0715/0818 18012KT 6SM HZ VCSH SCT015 BKN040
     FM072000 18016KT P6SM BKN050
     FM080200 21010KT P6SM SCT050 BKN250
     FM081400 23008KT P6SM SCT050 OVC100=

USA.gov is the U.S. government's official web portal to all federal, state and local government web resources and services.